Main page
METAR-TAF:

METAR-TAF

Airports :

Baghdad International Airport

Baghdad, Iraq

latitude: 33-15-45N, longitude: 44-14-04E, elevation: 35 m

Current weather observation

The report was made 33 minutes ago, at 12:00 UTC
Wind 3 kt from the Southwest, varying between Southeast and West/Northwest
Temperature 46°C
Humidity 15%
Pressure 1002 hPa
Visibility 10 km or more
Scattered clouds at a height of 4500 ft

METAR: ORBI 251200Z 22003KT 140V290 9999 SCT045 46/13 Q1002 NOSIG

Time: 15:33 (12:33 UTC)

Forecast

The report was made 1 hour and 33 minutes ago, at 11:00 UTC
Forecast valid from 25 at 12 UTC to 26 at 12 UTC
Wind 7 kt from the West/Northwest
Visibility: 8000 m

TAF: ORBI 251100Z 2512/2612 29007KT 8000 NSC

Weather observations and forecasts of more than 4000 airports (METAR and TAF reports).

The available stations are represented by yellow and red dots on the map.

Hover mouse over dot to see the name of the station.

Then click to see weather observations and forecasts.

To change the map : click on the green buttons with a black cross to zoom in, on the green button with a dash to zoom out, or on the green arrows for adjacent maps.


METAR-TAF: